createdAt,value
2022-08-26T00:00:11.144Z,97770.00
2022-08-26T00:02:39.956Z,97762.00
2022-08-26T00:05:09.901Z,97758.00
2022-08-26T00:07:37.814Z,97756.00
2022-08-26T00:10:07.224Z,97760.00
2022-08-26T00:12:35.866Z,97768.00
2022-08-26T00:15:08.418Z,97765.00
2022-08-26T00:17:36.832Z,97755.00
2022-08-26T00:20:14.057Z,97754.00
2022-08-26T00:22:42.377Z,97757.00
2022-08-26T00:25:12.194Z,97746.00
2022-08-26T00:27:40.341Z,97749.00
2022-08-26T00:30:13.868Z,97750.00
2022-08-26T00:32:44.076Z,97755.00
2022-08-26T00:35:16.579Z,97753.00
2022-08-26T00:37:45.357Z,97751.00
2022-08-26T00:40:19.110Z,97751.00
2022-08-26T00:42:47.445Z,97755.00
2022-08-26T00:45:17.376Z,97754.00
2022-08-26T00:47:50.604Z,97751.00
2022-08-26T00:50:26.117Z,97757.00
2022-08-26T00:52:57.371Z,97750.00
2022-08-26T00:55:34.555Z,97752.00
2022-08-26T00:58:07.720Z,97752.00
2022-08-26T01:00:36.008Z,97754.00
2022-08-26T01:03:05.445Z,97753.00
2022-08-26T01:05:36.871Z,97759.00
2022-08-26T01:08:05.226Z,97758.00
2022-08-26T01:10:33.307Z,97754.00
2022-08-26T01:13:09.966Z,97752.00
2022-08-26T01:15:45.046Z,97752.00
2022-08-26T01:18:14.604Z,97755.00
2022-08-26T01:21:04.189Z,97756.00
2022-08-26T01:23:38.211Z,97752.00
2022-08-26T01:26:19.786Z,97757.00
2022-08-26T01:28:51.517Z,97752.00
2022-08-26T01:31:24.914Z,97750.00
2022-08-26T01:34:04.478Z,97755.00
2022-08-26T01:36:32.780Z,97749.00
2022-08-26T01:39:01.909Z,97748.00
2022-08-26T01:41:35.111Z,97749.00
2022-08-26T01:44:06.072Z,97751.00
2022-08-26T01:46:38.321Z,97753.00
2022-08-26T01:49:09.584Z,97756.00
2022-08-26T01:51:41.005Z,97760.00
2022-08-26T01:54:11.925Z,97748.00
2022-08-26T01:56:42.150Z,97747.00
2022-08-26T01:59:14.831Z,97751.00
2022-08-26T02:01:42.883Z,97756.00
2022-08-26T02:04:18.657Z,97760.00
2022-08-26T02:06:46.968Z,97761.00
2022-08-26T02:09:18.178Z,97753.00
2022-08-26T02:11:48.992Z,97754.00
2022-08-26T02:14:23.693Z,97758.00
2022-08-26T02:16:56.827Z,97752.00
2022-08-26T02:19:30.254Z,97750.00
2022-08-26T02:22:01.404Z,97747.00
2022-08-26T02:24:49.464Z,97755.00
2022-08-26T02:27:20.429Z,97752.00
2022-08-26T02:29:55.972Z,97749.00
2022-08-26T02:32:24.020Z,97754.00
2022-08-26T02:34:52.348Z,97745.00
2022-08-26T02:37:20.521Z,97752.00
2022-08-26T02:39:52.070Z,97756.00
2022-08-26T02:42:19.965Z,97750.00
2022-08-26T02:44:47.729Z,97747.00
2022-08-26T02:47:16.233Z,97739.00
2022-08-26T02:49:47.332Z,97736.00
2022-08-26T02:52:15.568Z,97745.00
2022-08-26T02:54:43.987Z,97740.00
2022-08-26T02:57:15.159Z,97746.00
2022-08-26T02:59:43.218Z,97744.00
2022-08-26T03:02:12.468Z,97742.00
2022-08-26T03:04:41.936Z,97731.00
2022-08-26T03:07:26.411Z,97738.00
2022-08-26T03:09:54.203Z,97738.00
2022-08-26T03:12:23.333Z,97741.00
2022-08-26T03:14:51.086Z,97732.00
2022-08-26T03:17:21.090Z,97734.00
2022-08-26T03:19:52.881Z,97731.00
2022-08-26T03:22:24.787Z,97726.00
2022-08-26T03:24:52.598Z,97734.00
2022-08-26T03:27:20.748Z,97732.00
2022-08-26T03:30:07.870Z,97729.00
2022-08-26T03:32:39.821Z,97723.00
2022-08-26T03:35:10.233Z,97729.00
2022-08-26T03:37:39.071Z,97721.00
2022-08-26T03:40:10.452Z,97720.00
2022-08-26T03:42:40.751Z,97715.00
2022-08-26T03:45:15.999Z,97723.00
2022-08-26T03:47:44.618Z,97714.00
2022-08-26T03:50:22.883Z,97722.00
2022-08-26T03:52:53.905Z,97724.00
2022-08-26T03:55:25.358Z,97721.00
2022-08-26T03:57:55.383Z,97718.00
2022-08-26T04:00:27.750Z,97721.00
2022-08-26T04:02:55.536Z,97725.00
2022-08-26T04:05:24.814Z,97732.00
2022-08-26T04:07:53.161Z,97726.00
2022-08-26T04:10:28.620Z,97730.00
2022-08-26T04:12:58.844Z,97725.00
2022-08-26T04:15:29.304Z,97723.00
2022-08-26T04:17:57.688Z,97722.00
2022-08-26T04:20:26.319Z,97721.00
2022-08-26T04:22:54.293Z,97722.00
2022-08-26T04:25:22.555Z,97720.00
2022-08-26T04:27:52.275Z,97724.00
2022-08-26T04:30:21.184Z,97725.00
2022-08-26T04:32:50.910Z,97723.00
2022-08-26T04:35:21.838Z,97717.00
2022-08-26T04:37:53.938Z,97726.00
2022-08-26T04:40:21.812Z,97729.00
2022-08-26T04:42:50.255Z,97715.00
2022-08-26T04:45:18.948Z,97719.00
2022-08-26T04:47:56.335Z,97722.00
2022-08-26T04:50:26.966Z,97728.00
2022-08-26T04:52:56.089Z,97731.00
2022-08-26T04:55:25.274Z,97730.00
2022-08-26T04:58:08.740Z,97733.00
2022-08-26T05:00:38.579Z,97736.00
2022-08-26T05:03:10.479Z,97734.00
2022-08-26T05:05:41.104Z,97737.00
2022-08-26T05:08:09.957Z,97732.00
2022-08-26T05:10:44.043Z,97729.00
2022-08-26T05:13:15.170Z,97732.00
2022-08-26T05:15:44.657Z,97740.00
2022-08-26T05:18:17.357Z,97728.00
2022-08-26T05:20:56.304Z,97738.00
2022-08-26T05:23:25.610Z,97730.00
2022-08-26T05:25:59.330Z,97732.00
2022-08-26T05:28:30.940Z,97734.00
2022-08-26T05:30:58.921Z,97738.00
2022-08-26T05:33:29.437Z,97738.00
2022-08-26T05:35:57.209Z,97736.00
2022-08-26T05:38:24.982Z,97745.00
2022-08-26T05:40:58.651Z,97738.00
2022-08-26T05:43:27.310Z,97740.00
2022-08-26T05:45:56.275Z,97745.00
2022-08-26T05:48:24.547Z,97742.00
2022-08-26T05:50:54.727Z,97757.00
2022-08-26T05:53:26.103Z,97747.00
2022-08-26T05:55:56.086Z,97750.00
2022-08-26T05:58:24.856Z,97749.00
2022-08-26T06:01:01.030Z,97748.00
2022-08-26T06:03:30.233Z,97750.00
2022-08-26T06:05:59.748Z,97752.00
2022-08-26T06:08:27.613Z,97754.00
2022-08-26T06:11:00.718Z,97755.00
2022-08-26T06:13:31.978Z,97753.00
2022-08-26T06:16:01.077Z,97757.00
2022-08-26T06:18:34.678Z,97758.00
2022-08-26T06:21:15.839Z,97758.00
2022-08-26T06:24:02.250Z,97755.00
2022-08-26T06:26:31.876Z,97761.00
2022-08-26T06:29:00.666Z,97756.00
2022-08-26T06:31:31.010Z,97758.00
2022-08-26T06:34:00.938Z,97754.00
2022-08-26T06:36:32.171Z,97755.00
2022-08-26T06:39:09.433Z,97750.00
2022-08-26T06:41:43.169Z,97753.00
2022-08-26T06:44:12.041Z,97756.00
2022-08-26T06:46:40.960Z,97758.00
2022-08-26T06:49:09.194Z,97759.00
2022-08-26T06:51:42.315Z,97760.00
2022-08-26T06:54:10.981Z,97756.00
2022-08-26T06:56:42.673Z,97766.00
2022-08-26T06:59:13.367Z,97759.00
2022-08-26T07:01:44.938Z,97770.00
2022-08-26T07:04:22.192Z,97757.00
2022-08-26T07:06:54.033Z,97757.00
2022-08-26T07:09:24.189Z,97760.00
2022-08-26T07:11:53.082Z,97757.00
2022-08-26T07:14:22.009Z,97758.00
2022-08-26T07:16:50.973Z,97765.00
2022-08-26T07:19:31.067Z,97759.00
2022-08-26T07:22:03.639Z,97762.00
2022-08-26T07:24:32.559Z,97757.00
2022-08-26T07:27:02.823Z,97759.00
2022-08-26T07:29:31.594Z,97758.00
2022-08-26T07:31:59.664Z,97767.00
2022-08-26T07:34:28.131Z,97758.00
2022-08-26T07:36:56.990Z,97768.00
2022-08-26T07:39:27.900Z,97772.00
2022-08-26T07:41:56.325Z,97758.00
2022-08-26T07:44:27.135Z,97755.00
2022-08-26T07:46:55.002Z,97759.00
2022-08-26T07:49:23.699Z,97758.00
2022-08-26T07:51:52.520Z,97774.00
2022-08-26T07:54:20.577Z,97766.00
2022-08-26T07:56:56.205Z,97766.00
2022-08-26T07:59:25.285Z,97765.00
2022-08-26T08:01:53.955Z,97758.00
2022-08-26T08:04:26.226Z,97760.00
2022-08-26T08:06:55.641Z,97770.00
2022-08-26T08:09:25.233Z,97772.00
2022-08-26T08:11:55.272Z,97769.00
2022-08-26T08:14:23.137Z,97774.00
2022-08-26T08:16:54.689Z,97769.00
2022-08-26T08:19:29.851Z,97760.00
2022-08-26T08:22:11.345Z,97760.00
2022-08-26T08:24:45.321Z,97750.00
2022-08-26T08:27:23.490Z,97749.00
2022-08-26T08:29:54.145Z,97758.00
2022-08-26T08:32:22.372Z,97749.00
2022-08-26T08:34:50.318Z,97751.00
2022-08-26T08:37:18.182Z,97741.00
2022-08-26T08:39:46.007Z,97745.00
2022-08-26T08:42:39.641Z,97748.00
2022-08-26T08:45:15.358Z,97743.00
2022-08-26T08:47:54.654Z,97738.00
2022-08-26T08:50:29.512Z,97734.00
2022-08-26T08:53:10.826Z,97738.00
2022-08-26T08:55:51.701Z,97742.00
2022-08-26T08:58:30.494Z,97745.00
2022-08-26T09:01:06.015Z,97744.00
2022-08-26T09:03:48.873Z,97743.00
2022-08-26T09:06:20.483Z,97734.00
2022-08-26T09:08:51.699Z,97727.00
2022-08-26T09:11:21.228Z,97725.00
2022-08-26T09:13:55.442Z,97729.00
2022-08-26T09:16:35.887Z,97721.00
2022-08-26T09:19:14.531Z,97728.00
2022-08-26T09:21:47.269Z,97718.00
2022-08-26T09:24:22.384Z,97721.00
2022-08-26T09:26:58.238Z,97724.00
2022-08-26T09:29:31.045Z,97719.00
2022-08-26T09:32:20.198Z,97715.00
2022-08-26T09:34:58.711Z,97715.00
2022-08-26T09:37:40.930Z,97708.00
2022-08-26T09:40:34.885Z,97709.00
2022-08-26T09:43:13.434Z,97709.00
2022-08-26T09:45:50.759Z,97709.00
2022-08-26T09:48:35.438Z,97705.00
2022-08-26T09:51:08.140Z,97704.00
2022-08-26T09:53:51.745Z,97697.00
2022-08-26T09:56:29.681Z,97686.00
2022-08-26T09:58:59.079Z,97683.00
2022-08-26T10:01:33.628Z,97674.00
2022-08-26T10:04:12.531Z,97662.00
2022-08-26T10:06:45.011Z,97661.00
2022-08-26T10:09:19.545Z,97657.00
2022-08-26T10:11:53.456Z,97654.00
2022-08-26T10:14:36.326Z,97649.00
2022-08-26T10:17:17.164Z,97660.00
2022-08-26T10:19:56.974Z,97644.00
2022-08-26T10:22:32.541Z,97639.00
2022-08-26T10:25:06.466Z,97643.00
2022-08-26T10:27:51.163Z,97636.00
2022-08-26T10:30:24.182Z,97631.00
2022-08-26T10:33:01.587Z,97631.00
2022-08-26T10:35:32.153Z,97632.00
2022-08-26T10:38:04.684Z,97621.00
2022-08-26T10:40:49.111Z,97623.00
2022-08-26T10:43:23.519Z,97626.00
2022-08-26T10:46:00.094Z,97616.00
2022-08-26T10:48:38.536Z,97619.00
2022-08-26T10:51:08.647Z,97615.00
2022-08-26T10:53:51.439Z,97606.00
2022-08-26T10:56:33.483Z,97610.00
2022-08-26T10:59:12.456Z,97611.00
2022-08-26T11:01:50.865Z,97616.00
2022-08-26T11:04:50.251Z,97619.00
2022-08-26T11:07:45.475Z,97617.00
2022-08-26T11:11:05.449Z,97610.00
2022-08-26T11:14:06.595Z,97608.00
2022-08-26T11:16:43.239Z,97598.00
2022-08-26T11:19:56.758Z,97600.00
2022-08-26T11:22:31.093Z,97603.00
2022-08-26T11:25:14.659Z,97600.00
2022-08-26T11:27:59.612Z,97597.00
2022-08-26T11:30:57.030Z,97590.00
2022-08-26T11:33:57.984Z,97592.00
2022-08-26T11:36:52.232Z,97582.00
2022-08-26T11:39:36.634Z,97579.00
2022-08-26T11:42:23.915Z,97575.00
2022-08-26T11:44:58.329Z,97567.00
2022-08-26T11:47:30.677Z,97566.00
2022-08-26T11:50:11.890Z,97559.00
2022-08-26T11:52:39.799Z,97549.00
2022-08-26T11:55:14.860Z,97554.00
2022-08-26T11:57:47.010Z,97550.00
2022-08-26T12:00:23.480Z,97553.00
2022-08-26T12:02:52.659Z,97550.00
2022-08-26T12:05:29.566Z,97550.00
2022-08-26T12:08:06.290Z,97546.00
2022-08-26T12:10:36.495Z,97538.00
2022-08-26T12:13:07.224Z,97535.00
2022-08-26T12:15:36.993Z,97534.00
2022-08-26T12:18:28.809Z,97527.00
2022-08-26T12:21:01.530Z,97522.00
2022-08-26T12:23:43.819Z,97519.00
2022-08-26T12:26:22.504Z,97512.00
2022-08-26T12:28:57.395Z,97516.00
2022-08-26T12:31:33.976Z,97524.00
2022-08-26T12:34:05.914Z,97512.00
2022-08-26T12:36:42.283Z,97521.00
2022-08-26T12:39:16.074Z,97523.00
2022-08-26T12:41:52.935Z,97523.00
2022-08-26T12:44:53.628Z,97517.00
2022-08-26T12:47:42.127Z,97512.00
2022-08-26T12:50:19.848Z,97510.00
2022-08-26T12:53:00.145Z,97504.00
2022-08-26T12:55:39.758Z,97497.00
2022-08-26T12:58:26.399Z,97485.00
2022-08-26T13:00:57.739Z,97480.00
2022-08-26T13:03:43.232Z,97475.00
2022-08-26T13:06:25.763Z,97469.00
2022-08-26T13:08:56.343Z,97463.00
2022-08-26T13:11:28.921Z,97460.00
2022-08-26T13:14:02.471Z,97458.00
2022-08-26T13:16:36.284Z,97449.00
2022-08-26T13:19:10.177Z,97454.00
2022-08-26T13:21:44.761Z,97458.00
2022-08-26T13:24:15.637Z,97465.00
2022-08-26T13:26:46.421Z,97463.00
2022-08-26T13:29:16.409Z,97464.00
2022-08-26T13:31:46.827Z,97471.00
2022-08-26T13:34:19.132Z,97467.00
2022-08-26T13:36:48.028Z,97468.00
2022-08-26T13:39:16.452Z,97469.00
2022-08-26T13:41:44.617Z,97469.00
2022-08-26T13:44:13.380Z,97463.00
2022-08-26T13:46:43.060Z,97471.00
2022-08-26T13:49:11.408Z,97463.00
2022-08-26T13:51:40.014Z,97459.00
2022-08-26T13:54:08.423Z,97463.00
2022-08-26T13:56:37.448Z,97462.00
2022-08-26T13:59:06.514Z,97476.00
2022-08-26T14:01:36.429Z,97501.00
2022-08-26T14:04:05.744Z,97523.00
2022-08-26T14:06:33.882Z,97534.00
2022-08-26T14:09:01.712Z,97554.00
2022-08-26T14:11:30.151Z,97563.00
2022-08-26T14:14:09.029Z,97616.00
2022-08-26T14:16:58.727Z,97622.00
2022-08-26T14:19:30.991Z,97655.00
2022-08-26T14:22:01.433Z,97670.00
2022-08-26T14:24:29.822Z,97682.00
2022-08-26T14:26:57.874Z,97670.00
2022-08-26T14:29:26.269Z,97683.00
2022-08-26T14:31:56.175Z,97691.00
2022-08-26T14:34:24.537Z,97693.00
2022-08-26T14:36:53.739Z,97703.00
2022-08-26T14:39:21.958Z,97707.00
2022-08-26T14:41:56.210Z,97690.00
2022-08-26T14:44:28.897Z,97684.00
2022-08-26T14:46:58.011Z,97639.00
2022-08-26T14:49:27.235Z,97605.00
2022-08-26T14:51:56.709Z,97582.00
2022-08-26T14:54:23.581Z,97567.00
2022-08-26T14:56:55.927Z,97557.00
2022-08-26T14:59:26.561Z,97569.00
2022-08-26T15:01:55.566Z,97562.00
2022-08-26T15:04:25.301Z,97535.00
2022-08-26T15:06:55.032Z,97518.00
2022-08-26T15:09:24.881Z,97522.00
2022-08-26T15:11:54.043Z,97533.00
2022-08-26T15:14:24.088Z,97527.00
2022-08-26T15:16:55.840Z,97542.00
2022-08-26T15:19:26.051Z,97555.00
2022-08-26T15:21:54.213Z,97575.00
2022-08-26T15:24:28.688Z,97631.00
2022-08-26T15:27:00.146Z,97651.00
2022-08-26T15:29:28.287Z,97655.00
2022-08-26T15:31:57.457Z,97657.00
2022-08-26T15:34:25.595Z,97662.00
2022-08-26T15:36:53.429Z,97660.00
2022-08-26T15:39:21.820Z,97668.00
2022-08-26T15:41:51.643Z,97681.00
2022-08-26T15:44:19.706Z,97678.00
2022-08-26T15:46:52.533Z,97675.00
2022-08-26T15:49:23.915Z,97658.00
2022-08-26T15:51:51.777Z,97656.00
2022-08-26T15:54:23.245Z,97640.00
2022-08-26T15:56:53.107Z,97643.00
2022-08-26T15:59:27.684Z,97629.00
2022-08-26T16:01:55.828Z,97625.00
2022-08-26T16:04:23.710Z,97617.00
2022-08-26T16:06:52.832Z,97618.00
2022-08-26T16:09:26.872Z,97601.00
2022-08-26T16:11:58.634Z,97606.00
2022-08-26T16:14:27.660Z,97603.00
2022-08-26T16:16:57.956Z,97594.00
2022-08-26T16:19:25.795Z,97593.00
2022-08-26T16:21:53.648Z,97587.00
2022-08-26T16:24:24.854Z,97602.00
2022-08-26T16:26:56.501Z,97607.00
2022-08-26T16:29:24.538Z,97599.00
2022-08-26T16:31:53.334Z,97599.00
2022-08-26T16:34:22.444Z,97590.00
2022-08-26T16:36:50.285Z,97599.00
2022-08-26T16:39:18.085Z,97580.00
2022-08-26T16:41:45.891Z,97581.00
2022-08-26T16:44:15.041Z,97557.00
2022-08-26T16:46:42.957Z,97557.00
2022-08-26T16:49:10.802Z,97555.00
2022-08-26T16:51:38.703Z,97546.00
2022-08-26T16:54:08.564Z,97548.00
2022-08-26T16:56:37.307Z,97540.00
2022-08-26T16:59:10.484Z,97539.00
2022-08-26T17:01:39.879Z,97537.00
2022-08-26T17:04:07.829Z,97535.00
2022-08-26T17:06:35.684Z,97548.00
2022-08-26T17:09:03.725Z,97544.00
2022-08-26T17:11:31.724Z,97546.00
2022-08-26T17:13:59.607Z,97546.00
2022-08-26T17:16:28.286Z,97541.00
2022-08-26T17:18:59.128Z,97531.00
2022-08-26T17:21:28.885Z,97530.00
2022-08-26T17:23:57.236Z,97523.00
2022-08-26T17:26:25.132Z,97532.00
2022-08-26T17:28:53.725Z,97543.00
2022-08-26T17:31:23.363Z,97543.00
2022-08-26T17:33:53.930Z,97547.00
2022-08-26T17:36:27.552Z,97558.00
2022-08-26T17:38:56.827Z,97563.00
2022-08-26T17:41:24.713Z,97561.00
2022-08-26T17:43:52.579Z,97557.00
2022-08-26T17:46:20.439Z,97559.00
2022-08-26T17:48:48.749Z,97557.00
2022-08-26T17:51:19.461Z,97557.00
2022-08-26T17:53:50.348Z,97562.00
2022-08-26T17:56:23.950Z,97560.00
2022-08-26T17:58:54.123Z,97564.00
2022-08-26T18:01:23.523Z,97571.00
2022-08-26T18:03:51.441Z,97567.00
2022-08-26T18:06:21.936Z,97578.00
2022-08-26T18:08:53.337Z,97592.00
2022-08-26T18:11:24.462Z,97607.00
2022-08-26T18:13:52.452Z,97601.00
2022-08-26T18:16:21.688Z,97606.00
2022-08-26T18:18:53.238Z,97613.00
2022-08-26T18:21:24.540Z,97621.00
2022-08-26T18:23:55.813Z,97628.00
2022-08-26T18:26:27.423Z,97630.00
2022-08-26T18:28:55.992Z,97633.00
2022-08-26T18:31:24.640Z,97636.00
2022-08-26T18:33:52.924Z,97643.00
2022-08-26T18:36:25.768Z,97642.00
2022-08-26T18:38:56.552Z,97640.00
2022-08-26T18:41:26.700Z,97651.00
2022-08-26T18:43:55.521Z,97645.00
2022-08-26T18:46:26.220Z,97654.00
2022-08-26T18:48:54.960Z,97647.00
2022-08-26T18:51:27.922Z,97646.00
2022-08-26T18:53:57.966Z,97641.00
2022-08-26T18:56:25.934Z,97639.00
2022-08-26T18:58:53.816Z,97635.00
2022-08-26T19:01:26.753Z,97639.00
2022-08-26T19:03:56.287Z,97638.00
2022-08-26T19:06:26.692Z,97643.00
2022-08-26T19:08:54.805Z,97632.00
2022-08-26T19:11:32.476Z,97629.00
2022-08-26T19:14:08.287Z,97627.00
2022-08-26T19:16:37.425Z,97631.00
2022-08-26T19:19:06.224Z,97626.00
2022-08-26T19:21:37.154Z,97624.00
2022-08-26T19:24:13.139Z,97628.00
2022-08-26T19:26:43.776Z,97620.00
2022-08-26T19:29:12.064Z,97616.00
2022-08-26T19:31:40.023Z,97616.00
2022-08-26T19:34:09.730Z,97624.00
2022-08-26T19:36:37.831Z,97631.00
2022-08-26T19:39:07.786Z,97628.00
2022-08-26T19:41:38.150Z,97633.00
2022-08-26T19:44:12.877Z,97632.00
2022-08-26T19:46:42.074Z,97637.00
2022-08-26T19:49:09.911Z,97638.00
2022-08-26T19:51:38.010Z,97647.00
2022-08-26T19:54:06.318Z,97646.00
2022-08-26T19:56:34.939Z,97654.00
2022-08-26T19:59:02.796Z,97651.00
2022-08-26T20:01:32.118Z,97658.00
2022-08-26T20:04:00.260Z,97659.00
2022-08-26T20:06:28.161Z,97653.00
2022-08-26T20:08:56.184Z,97655.00
2022-08-26T20:11:24.611Z,97657.00
2022-08-26T20:13:52.460Z,97658.00
2022-08-26T20:16:20.716Z,97657.00
2022-08-26T20:19:07.698Z,97653.00
2022-08-26T20:21:40.307Z,97656.00
2022-08-26T20:24:13.343Z,97668.00
2022-08-26T20:26:45.049Z,97669.00
2022-08-26T20:29:16.764Z,97675.00
2022-08-26T20:31:45.353Z,97685.00
2022-08-26T20:34:18.445Z,97702.00
2022-08-26T20:36:49.145Z,97710.00
2022-08-26T20:39:17.635Z,97722.00
2022-08-26T20:41:45.696Z,97722.00
2022-08-26T20:44:14.391Z,97733.00
2022-08-26T20:46:42.576Z,97732.00
2022-08-26T20:49:10.749Z,97728.00
2022-08-26T20:51:40.418Z,97732.00
2022-08-26T20:54:08.773Z,97730.00
2022-08-26T20:56:37.587Z,97741.00
2022-08-26T20:59:07.791Z,97733.00
2022-08-26T21:01:42.310Z,97740.00
2022-08-26T21:04:20.694Z,97750.00
2022-08-26T21:06:52.915Z,97755.00
2022-08-26T21:09:22.921Z,97748.00
2022-08-26T21:11:51.659Z,97750.00
2022-08-26T21:14:20.550Z,97761.00
2022-08-26T21:16:48.881Z,97781.00
2022-08-26T21:19:19.448Z,97771.00
2022-08-26T21:21:50.292Z,97773.00
2022-08-26T21:24:18.923Z,97787.00
2022-08-26T21:26:47.495Z,97779.00
2022-08-26T21:29:15.605Z,97782.00
2022-08-26T21:31:46.971Z,97772.00
2022-08-26T21:34:16.970Z,97760.00
2022-08-26T21:36:45.431Z,97767.00
2022-08-26T21:39:15.263Z,97756.00
2022-08-26T21:41:44.739Z,97747.00
2022-08-26T21:44:13.943Z,97740.00
2022-08-26T21:46:43.009Z,97730.00
2022-08-26T21:49:15.595Z,97725.00
2022-08-26T21:51:47.005Z,97714.00
2022-08-26T21:54:18.033Z,97711.00
2022-08-26T21:56:47.765Z,97709.00
2022-08-26T21:59:18.364Z,97709.00
2022-08-26T22:01:47.015Z,97704.00
2022-08-26T22:04:15.823Z,97697.00
2022-08-26T22:06:47.767Z,97707.00
2022-08-26T22:09:20.179Z,97705.00
2022-08-26T22:11:48.624Z,97703.00
2022-08-26T22:14:18.359Z,97701.00
2022-08-26T22:16:50.638Z,97695.00
2022-08-26T22:19:19.902Z,97697.00
2022-08-26T22:21:50.045Z,97684.00
2022-08-26T22:24:21.096Z,97681.00
2022-08-26T22:26:50.653Z,97679.00
2022-08-26T22:29:20.104Z,97670.00
2022-08-26T22:31:48.048Z,97663.00
2022-08-26T22:34:19.509Z,97657.00
2022-08-26T22:36:50.512Z,97651.00
2022-08-26T22:39:23.936Z,97666.00
2022-08-26T22:41:54.400Z,97644.00
2022-08-26T22:44:23.096Z,97645.00
2022-08-26T22:46:55.042Z,97642.00
2022-08-26T22:49:23.099Z,97640.00
2022-08-26T22:51:51.932Z,97633.00
2022-08-26T22:54:21.420Z,97630.00
2022-08-26T22:56:49.435Z,97619.00
2022-08-26T22:59:17.905Z,97622.00
2022-08-26T23:01:46.824Z,97622.00
2022-08-26T23:04:15.528Z,97623.00
2022-08-26T23:06:47.500Z,97618.00
2022-08-26T23:09:17.851Z,97622.00
2022-08-26T23:11:48.432Z,97619.00
2022-08-26T23:14:18.528Z,97622.00
2022-08-26T23:16:47.480Z,97628.00
2022-08-26T23:19:18.937Z,97630.00
2022-08-26T23:21:47.639Z,97632.00
2022-08-26T23:24:15.752Z,97626.00
2022-08-26T23:26:45.813Z,97621.00
2022-08-26T23:29:16.267Z,97631.00
2022-08-26T23:31:44.410Z,97632.00
2022-08-26T23:34:31.492Z,97629.00
2022-08-26T23:37:00.925Z,97621.00
2022-08-26T23:39:29.210Z,97626.00
2022-08-26T23:41:57.992Z,97631.00
2022-08-26T23:44:28.217Z,97628.00
2022-08-26T23:46:56.260Z,97627.00
2022-08-26T23:49:24.739Z,97623.00
2022-08-26T23:52:10.583Z,97634.00
2022-08-26T23:54:39.034Z,97630.00
2022-08-26T23:57:07.858Z,97640.00
2022-08-26T23:59:39.308Z,97644.00
